createdAt,value
2023-07-24T04:02:36.568Z,20.77
2023-07-24T04:05:39.749Z,20.80
2023-07-24T04:08:42.327Z,20.77
2023-07-24T04:11:45.590Z,20.80
2023-07-24T04:14:49.926Z,20.88
2023-07-24T04:17:52.907Z,20.97
2023-07-24T04:20:57.045Z,21.07
2023-07-24T04:24:00.006Z,21.09
2023-07-24T04:27:02.637Z,21.14
2023-07-24T04:30:06.134Z,21.22
2023-07-24T04:33:09.039Z,21.27
2023-07-24T04:36:11.989Z,21.41
2023-07-24T04:39:14.763Z,21.56
2023-07-24T04:42:17.709Z,21.57
2023-07-24T04:45:22.871Z,21.60
2023-07-24T04:48:26.946Z,21.67
2023-07-24T04:51:29.530Z,21.69
2023-07-24T04:54:32.408Z,21.78
2023-07-24T04:57:35.108Z,21.79
2023-07-24T05:00:38.071Z,21.83
2023-07-24T05:03:40.783Z,22.00
2023-07-24T05:06:43.693Z,22.02
2023-07-24T05:09:46.337Z,22.06
2023-07-24T05:12:49.310Z,22.24
2023-07-24T05:15:51.984Z,22.43
2023-07-24T05:18:54.977Z,22.60
2023-07-24T05:21:57.638Z,22.67
2023-07-24T05:25:00.488Z,22.64
2023-07-24T05:28:03.192Z,22.66
2023-07-24T05:31:06.871Z,22.69
2023-07-24T05:34:09.536Z,22.86
2023-07-24T05:37:12.544Z,22.85
2023-07-24T05:40:15.227Z,23.04
2023-07-24T05:43:18.118Z,23.25
2023-07-24T05:46:20.668Z,23.29
2023-07-24T05:49:23.572Z,23.31
2023-07-24T05:52:26.234Z,23.41
2023-07-24T05:55:29.203Z,23.53
2023-07-24T05:58:32.058Z,23.68
2023-07-24T06:01:34.994Z,23.77
2023-07-24T06:04:38.155Z,23.94
2023-07-24T06:07:40.838Z,24.03
2023-07-24T06:10:43.747Z,23.96
2023-07-24T06:13:46.462Z,23.97
2023-07-24T06:16:49.396Z,24.09
2023-07-24T06:19:52.028Z,24.29
2023-07-24T06:22:55.017Z,24.42
2023-07-24T06:25:57.692Z,24.57
2023-07-24T06:29:00.585Z,24.65
2023-07-24T06:32:04.224Z,24.78
2023-07-24T06:35:07.586Z,24.97
2023-07-24T06:38:10.627Z,24.82
2023-07-24T06:41:13.667Z,24.86
2023-07-24T06:44:16.255Z,25.11
2023-07-24T06:47:19.295Z,25.10
2023-07-24T06:50:22.031Z,25.15
2023-07-24T06:53:24.974Z,25.27
2023-07-24T06:56:27.901Z,25.27
2023-07-24T06:59:31.177Z,25.39
2023-07-24T07:02:33.900Z,25.42
2023-07-24T07:05:36.972Z,25.29
2023-07-24T07:08:39.699Z,25.41
2023-07-24T07:11:44.434Z,25.60
2023-07-24T07:14:47.217Z,25.85
2023-07-24T07:17:50.150Z,26.14
2023-07-24T07:20:54.394Z,26.19
2023-07-24T07:23:57.306Z,25.97
2023-07-24T07:26:59.949Z,26.11
2023-07-24T07:30:02.942Z,26.27
2023-07-24T07:33:06.969Z,26.53
2023-07-24T07:36:10.102Z,26.67
2023-07-24T07:39:12.752Z,26.75
2023-07-24T07:42:18.156Z,26.71
2023-07-24T07:45:22.493Z,27.02
2023-07-24T07:48:25.459Z,27.31
2023-07-24T07:51:28.328Z,27.40
2023-07-24T07:54:32.067Z,27.41
2023-07-24T07:57:39.046Z,27.48
2023-07-24T08:00:42.207Z,27.71
2023-07-24T08:03:47.062Z,27.72
2023-07-24T08:06:49.676Z,28.00
2023-07-24T08:09:52.635Z,28.35
2023-07-24T08:12:55.484Z,28.52
2023-07-24T08:15:58.587Z,28.62
2023-07-24T08:19:01.196Z,28.89
2023-07-24T08:22:06.529Z,29.02
2023-07-24T08:25:09.478Z,29.20
2023-07-24T08:28:12.415Z,29.21
2023-07-24T08:31:15.121Z,29.11
2023-07-24T08:34:18.076Z,29.31
2023-07-24T08:37:20.906Z,29.39
2023-07-24T08:40:23.821Z,29.28
2023-07-24T08:43:26.910Z,29.39
2023-07-24T08:46:30.700Z,29.57
2023-07-24T08:49:35.818Z,29.63
2023-07-24T08:52:43.531Z,29.75
2023-07-24T08:55:50.024Z,29.82
2023-07-24T08:58:52.996Z,29.76
2023-07-24T09:01:56.240Z,29.90
2023-07-24T09:04:59.504Z,30.05
2023-07-24T09:08:02.072Z,30.04
2023-07-24T09:11:06.869Z,30.42
2023-07-24T09:14:14.604Z,30.43
2023-07-24T09:17:25.676Z,30.18
2023-07-24T09:20:39.800Z,30.24
2023-07-24T09:23:44.542Z,30.45
2023-07-24T09:26:50.318Z,30.52
2023-07-24T09:29:53.588Z,30.72
2023-07-24T09:32:56.466Z,30.61
2023-07-24T09:36:02.919Z,30.81
2023-07-24T09:39:07.393Z,30.96
2023-07-24T09:42:10.350Z,31.25
2023-07-24T09:45:12.945Z,31.51
2023-07-24T09:48:40.781Z,31.61
2023-07-24T09:51:40.283Z,31.78
2023-07-24T09:55:12.369Z,31.81
2023-07-24T09:58:16.842Z,31.90
2023-07-24T10:01:19.898Z,32.10
2023-07-24T10:04:25.616Z,32.44
2023-07-24T10:07:28.862Z,32.40
2023-07-24T10:10:33.425Z,32.52
2023-07-24T10:13:37.813Z,32.78
2023-07-24T10:16:41.758Z,33.05
2023-07-24T10:19:44.529Z,33.31
2023-07-24T10:22:47.517Z,33.68
2023-07-24T10:25:51.405Z,33.71
2023-07-24T10:28:55.294Z,33.70
2023-07-24T10:31:58.175Z,33.84
2023-07-24T10:35:11.637Z,34.00
2023-07-24T10:38:16.785Z,34.18
2023-07-24T10:41:19.671Z,34.37
2023-07-24T10:44:32.622Z,34.36
2023-07-24T10:47:36.035Z,34.49
2023-07-24T10:50:40.143Z,34.89
2023-07-24T10:53:46.391Z,35.38
2023-07-24T10:56:51.865Z,35.11
2023-07-24T10:59:55.126Z,35.29
2023-07-24T11:02:57.893Z,35.35
2023-07-24T11:06:01.044Z,35.60
2023-07-24T11:09:03.842Z,36.04
2023-07-24T11:12:17.534Z,36.46
2023-07-24T11:15:27.056Z,36.37
2023-07-24T11:18:40.667Z,36.27
2023-07-24T11:21:54.015Z,37.15
2023-07-24T11:24:58.223Z,37.63
2023-07-24T11:28:00.917Z,36.98
2023-07-24T11:31:04.196Z,36.53
2023-07-24T11:34:07.394Z,35.90
2023-07-24T11:37:10.459Z,37.42
2023-07-24T11:40:15.833Z,39.29
2023-07-24T11:43:22.258Z,40.78
2023-07-24T11:46:26.051Z,41.55
2023-07-24T11:49:32.070Z,42.38
2023-07-24T11:52:49.365Z,42.50
2023-07-24T11:55:53.749Z,43.44
2023-07-24T11:58:56.373Z,44.05
2023-07-24T12:01:59.397Z,44.43
2023-07-24T12:05:02.503Z,44.65
2023-07-24T12:08:05.550Z,43.80
2023-07-24T12:11:18.747Z,43.81
2023-07-24T12:14:21.432Z,45.03
2023-07-24T12:17:24.379Z,44.74
2023-07-24T12:20:27.303Z,45.62
2023-07-24T12:23:30.487Z,45.35
2023-07-24T12:26:33.211Z,45.07
2023-07-24T12:29:36.261Z,45.31
2023-07-24T12:32:39.400Z,44.26
2023-07-24T12:35:42.518Z,44.26
2023-07-24T12:38:45.374Z,43.93
2023-07-24T12:41:51.150Z,44.41
2023-07-24T12:44:53.931Z,43.51
2023-07-24T12:47:58.199Z,44.19
2023-07-24T12:51:02.552Z,44.62
2023-07-24T12:54:09.061Z,45.06
2023-07-24T12:57:27.590Z,46.17
2023-07-24T13:00:31.464Z,46.19
2023-07-24T13:03:34.526Z,44.81
2023-07-24T13:06:37.638Z,45.58
2023-07-24T13:09:40.411Z,46.70
2023-07-24T13:12:43.447Z,47.34
2023-07-24T13:15:46.084Z,48.46
2023-07-24T13:18:50.633Z,47.59
2023-07-24T13:21:53.365Z,46.65
2023-07-24T13:24:56.337Z,46.53
2023-07-24T13:27:59.098Z,46.86
2023-07-24T13:31:13.070Z,46.80
2023-07-24T13:34:19.018Z,45.92
2023-07-24T13:37:22.673Z,46.20
2023-07-24T13:40:25.334Z,46.56
2023-07-24T13:43:29.767Z,46.64
2023-07-24T13:46:32.506Z,46.27
2023-07-24T13:49:35.615Z,46.23
2023-07-24T13:52:39.079Z,45.26
2023-07-24T13:55:41.903Z,45.14
2023-07-24T13:58:44.481Z,44.97
2023-07-24T14:01:50.368Z,44.96
2023-07-24T14:04:54.637Z,44.54
2023-07-24T14:07:57.288Z,42.14
2023-07-24T14:11:00.455Z,39.05
2023-07-24T14:14:03.299Z,38.00
2023-07-24T14:17:06.557Z,36.99
2023-07-24T14:20:09.884Z,36.45
2023-07-24T14:23:13.063Z,36.17
2023-07-24T14:26:15.632Z,35.98
2023-07-24T14:29:19.188Z,35.71
2023-07-24T14:32:21.798Z,35.74
2023-07-24T14:35:24.802Z,35.76
2023-07-24T14:38:27.538Z,35.50
2023-07-24T14:41:31.002Z,35.85
2023-07-24T14:44:34.197Z,36.01
2023-07-24T14:47:37.221Z,35.95
2023-07-24T14:50:40.194Z,35.70
2023-07-24T14:53:43.149Z,35.51
2023-07-24T14:56:56.979Z,35.34
2023-07-24T15:00:05.344Z,34.97
2023-07-24T15:03:08.068Z,34.42
2023-07-24T15:06:11.161Z,34.53
2023-07-24T15:09:13.744Z,34.57
2023-07-24T15:12:16.759Z,34.45
2023-07-24T15:15:19.495Z,34.43
2023-07-24T15:18:22.534Z,34.32
2023-07-24T15:21:26.604Z,33.76
2023-07-24T15:24:29.805Z,33.67
2023-07-24T15:27:32.579Z,33.72
2023-07-24T15:30:35.453Z,33.91
2023-07-24T15:33:38.131Z,34.17
2023-07-24T15:36:41.076Z,34.27
2023-07-24T15:39:43.752Z,34.20
2023-07-24T15:42:48.003Z,33.67
2023-07-24T15:45:51.014Z,33.59
2023-07-24T15:48:54.017Z,33.58
2023-07-24T15:51:56.731Z,33.40
2023-07-24T15:55:00.735Z,33.26
